Boulder City, Nevada Weather observations

Data are for observation ending at time listed.
 Day   Time    Ave.   Ave.  Ave.  Vector   Max.   Stn.    Total    Solar   Ave.  
  of    of     Air    Rel.  Wind   Wind    Wind   Baro.  Precip.   Rad.    Soil  
Year   Day     Temp.  Hum.  Speed  Dir.    Gust   Pres.                    Temp. 
2015   (PST)    F      %     mph   deg.    mph     mb.     in.     W/m2     F   
------------------------------------------------------------------------------
  85    0:00   64.6    16    3.9    13      9.9   938.0    0.00       0    70.2
  85    0:10   63.3    20    2.5    27      7.1   938.0    0.00       0    70.1
  85    0:20   62.4    19    2.0    37      4.6   938.0    0.00       0    70.0
  85    0:30   62.1    18    3.7    68     10.7   938.0    0.00       0    70.0
  85    0:40   62.4    17    2.6    32      6.9   938.0    0.00       0    69.9
  85    0:50   62.4    18    3.4    17      6.9   938.0    0.00       0    69.8
  85    1:00   62.0    18    3.5     6      6.3   938.0    0.00       0    69.7
  85    1:10   61.7    20    5.0    12      9.1   937.9    0.00       0    69.7
  85    1:20   61.8    21    4.8     8     10.8   937.8    0.00       0    69.6
  85    1:30   61.5    20    4.2    10      8.4   937.7    0.00       0    69.5
  85    1:40   61.6    19    3.4     9      7.0   937.7    0.00       0    69.4
  85    1:50   61.5    19    3.8    12      6.5   937.6    0.00       0    69.4
  85    2:00   61.0    20    3.0    21      5.9   937.6    0.00       0    69.3
  85    2:10   59.8    22    3.0    10      4.9   937.6    0.00       0    69.2
  85    2:20   59.7    21    3.4     8      5.9   937.6    0.00       0    69.2
  85    2:30   59.8    21    3.6    14      5.3   937.6    0.00       0    69.1
  85    2:40   59.9    19    3.4     4      7.5   937.6    0.00       0    69.0
  85    2:50   61.0    16    3.3     2      6.8   937.7    0.00       0    68.9
  85    3:00   60.7    17    3.6     6      6.7   937.8    0.00       0    68.8
  85    3:10   60.6    17    3.7     2      7.4   937.8    0.00       0    68.7
  85    3:20   61.1    16    4.1   356      8.2   937.8    0.00       0    68.7
  85    3:30   61.4    15    3.8   350      8.0   938.0    0.00       0    68.6
  85    3:40   61.4    15    4.4   355     13.3   938.1    0.00       0    68.5
  85    3:50   61.5    14    4.0   354      8.9   938.2    0.00       0    68.5
  85    4:00   61.3    14    3.9   358      9.7   938.3    0.00       0    68.4
  85    4:10   61.5    14    5.6     6     13.2   938.4    0.00       0    68.3
  85    4:20   61.1    14    4.4   359      9.9   938.4    0.00       0    68.3
  85    4:30   61.2    14    4.7   359     11.4   938.4    0.00       0    68.2
  85    4:40   61.1    14    4.6     4     13.0   938.4    0.00       0    68.1
  85    4:50   60.8    14    4.5     7     13.1   938.5    0.00       0    68.1
  85    5:00   61.3    14    6.9    10     14.9   938.5    0.00       0    68.0
  85    5:10   61.1    14    5.2     7     11.8   938.6    0.00       0    67.9
  85    5:20   60.8    14    5.9     3     15.3   938.6    0.00       0    67.9
  85    5:30   60.8    14    5.1     3     10.2   938.7    0.00       2    67.8
  85    5:40   60.8    14    5.3   360     13.9   938.7    0.00       3    67.7
  85    5:50   60.8    14    6.2     8     11.8   938.9    0.00       7    67.7
  85    6:00   61.1    14    6.8    14     12.0   939.1    0.00      15    67.6
  85    6:10   61.4    14    4.5     3     10.2   939.2    0.00      62    67.6
  85    6:20   62.4    14    4.9     4     12.9   939.2    0.00     120    67.5
  85    6:30   63.4    14    4.5   356     12.9   939.3    0.00     155    67.5
  85    6:40   63.6    14    5.9   358     14.9   939.3    0.00     187    67.4
  85    6:50   63.9    14    5.9   351     12.2   939.3    0.00     229    67.3
  85    7:00   64.5    14    6.2   350     15.1   939.2    0.00     267    67.3
  85    7:10   64.6    14    6.4   357     15.4   939.5    0.00     218    67.2
  85    7:20   63.8    15    5.9   358     13.1   939.7    0.00     127    67.2
  85    7:30   63.4    15    5.8   356     18.3   939.8    0.00     113    67.2
  85    7:40   64.3    15    4.9   357     14.5   939.8    0.00     303    67.2
  85    7:50   65.7    14    5.7     2     13.5   939.9    0.00     442    67.2
  85    8:00   66.5    14    5.4   355     15.5   940.1    0.00     494    67.2
  85    8:10   66.6    14    6.1   359     14.2   940.3    0.00     521    67.2
  85    8:20   66.3    14    5.9     0     12.1   940.5    0.00     427    67.2
  85    8:30   66.2    14    7.8    14     15.3   940.6    0.00     446    67.2
  85    8:40   67.2    14    9.7    16     17.1   940.5    0.00     596    67.3
  85    8:50   68.1    14    7.6    16     14.0   940.7    0.00     620    67.4
  85    9:00   67.8    14    8.1     9     15.8   940.8    0.00     647    67.5
  85    9:10   68.5    14    7.3    11     13.4   940.7    0.00     676    67.6
  85    9:20   68.8    14    8.4    20     16.4   940.8    0.00     703    67.7
  85    9:30   69.0    14    7.1    19     16.7   940.9    0.00     581    67.9
  85    9:40   69.8    14    7.0    22     14.5   940.9    0.00     111    68.1
  85    9:50   69.7    14    6.5    28     13.7   940.9    0.00     637    68.3
  85   10:00   70.1    13    5.9    24     13.4   940.8    0.00     756    68.5
  85   10:10   70.8    13    5.3    16     11.9   940.8    0.00     791    68.7
  85   10:20   70.3    14    6.6    18     12.4   940.7    0.00     769    69.0
  85   10:30   70.9    14    6.1    18     12.2   940.7    0.00     731    69.2
  85   10:40   71.1    14    6.1    17     12.7   940.6    0.00     655    69.5
  85   10:50   72.1    13    6.7    21     13.0   940.5    0.00     522    69.8
  85   11:00   72.0    13    7.5    22     15.4   940.4    0.00     420    70.1
  85   11:10   72.2    13    6.2    19     13.4   940.5    0.00     593    70.4
  85   11:20   72.7    13    6.3    20     12.6   940.4    0.00     782    70.8
  85   11:30   73.2    13    5.9    24     11.7   940.3    0.00     871    71.1
  85   11:40   73.7    13    6.6    20     13.7   940.1    0.00     874    71.4
  85   11:50   74.5    13    5.5    18     14.5   940.1    0.00     874    71.8
  85   12:00   74.7    13    6.2    29     13.8   940.0    0.00     874    72.1
  85   12:10   74.8    13    7.7    25     13.1   939.9    0.00     872    72.4
  85   12:20   74.5    13    6.4    19     15.1   939.8    0.00     863    72.8
  85   12:30   74.6    13    5.6    10     12.1   939.7    0.00     854    73.1
  85   12:40   75.5    13    5.1    15     10.8   939.5    0.00     846    73.3
  85   12:50   75.9    13    4.7    24     12.9   939.3    0.00     838    73.5
  85   13:00   76.1    13    6.2    22     12.0   939.1    0.00     814    73.7
  85   13:10   76.0    13    5.0    13     11.2   938.9    0.00     815    73.8
  85   13:20   77.5    13    4.5    13     10.2   938.7    0.00     799    74.0
  85   13:30   78.1    12    4.2    20     10.4   938.6    0.00     781    74.0
  85   13:40   78.1    12    5.6    24     12.0   938.5    0.00     771    74.1
  85   13:50   77.5    13    4.7    14     12.0   938.3    0.00     743    74.2
  85   14:00   77.7    13    5.7    15     10.9   938.2    0.00     733    74.2
  85   14:10   78.4    13    4.4    18     11.0   938.1    0.00     693    74.3
  85   14:20   78.6    12    5.9    20     12.9   938.0    0.00     690    74.3
  85   14:30   78.9    12    4.3    25     10.0   937.9    0.00     614    74.3
  85   14:40   78.6    12    4.1    14      9.7   937.8    0.00     569    74.4
  85   14:50   79.2    12    4.4    20     10.5   937.7    0.00     534    74.4
  85   15:00   78.5    12    4.4    25     10.7   937.6    0.00     431    74.4
  85   15:10   78.3    12    5.2    23      9.5   937.5    0.00     495    74.4
  85   15:20   78.7    12    4.9    16      9.3   937.5    0.00     485    74.4
  85   15:30   78.6    12    5.2    22     11.8   937.4    0.00     414    74.4
  85   15:40   78.7    12    5.3    20     10.9   937.2    0.00     450    74.4
  85   15:50   79.0    12    5.0    15      9.4   937.2    0.00     424    74.4
  85   16:00   78.8    12    4.7    18      8.9   937.2    0.00     378    74.4
  85   16:10   78.8    12    4.0    24      9.5   937.2    0.00     329    74.3
  85   16:20   78.7    12    5.2    20      9.7   937.1    0.00     294    74.3
  85   16:30   78.5    12    5.1    19      9.7   937.1    0.00     272    74.2
  85   16:40   78.2    12    5.0    22      9.6   936.9    0.00     236    74.2
  85   16:50   78.1    12    4.7    26      9.6   936.8    0.00     201    74.2
  85   17:00   78.0    12    3.8    22      7.7   936.8    0.00     168    74.1
  85   17:10   78.0    12    3.3    13      7.7   936.8    0.00     135    74.1
  85   17:20   77.3    12    3.1    22      6.6   936.7    0.00      95    74.0
  85   17:30   75.8    12    2.6    19      5.6   936.6    0.00      58    73.9
  85   17:40   75.0    13    1.7    13      3.0   936.4    0.00      18    73.8
  85   17:50   73.9    13    0.6     7      2.0   936.4    0.00      11    73.7
  85   18:00   73.0    14    1.1   300      2.3   936.3    0.00       6    73.6
  85   18:10   71.8    14    1.8   293      3.3   936.2    0.00       2    73.6
  85   18:20   71.6    14    2.1   293      3.6   936.1    0.00       0    73.5
  85   18:30   71.5    14    1.9   289      4.2   936.1    0.00       0    73.4
  85   18:40   71.1    14    1.7   294      3.0   936.2    0.00       0    73.3
  85   18:50   70.3    15    2.2   292      3.4   936.3    0.00       0    73.2
  85   19:00   69.8    16    1.4   285      3.5   936.3    0.00       0    73.1
  85   19:10   69.9    15    2.0   288      3.7   936.3    0.00       0    73.0
  85   19:20   70.0    15    1.7   295      3.6   936.4    0.00       0    72.9
  85   19:30   69.7    16    1.5   268      2.2   936.4    0.00       0    72.8
  85   19:40   69.2    16    1.2   282      2.7   936.4    0.00       0    72.7
  85   19:50   69.0    16    1.6   274      3.7   936.4    0.00       0    72.6
  85   20:00   69.3    16    1.5   294      2.9   936.5    0.00       0    72.4
  85   20:10   68.5    17    0.7   246      2.1   936.5    0.00       0    72.3
  85   20:20   67.4    18    1.4   202      2.1   936.5    0.00       0    72.2
  85   20:30   66.6    18    1.8   237      2.9   936.5    0.00       0    72.1
  85   20:40   66.6    18    2.5   221      3.1   936.5    0.00       0    72.0
  85   20:50   65.8    19    2.4   222      3.0   936.6    0.00       0    71.9
  85   21:00   65.6    19    2.4   238      3.4   936.6    0.00       0    71.8
  85   21:10   64.8    20    2.9   222      3.8   936.6    0.00       0    71.7
  85   21:20   65.6    19    2.7   238      3.4   936.6    0.00       0    71.6
  85   21:30   65.1    20    2.4   223      3.7   936.6    0.00       0    71.5
  85   21:40   65.0    19    1.4   276      2.9   936.6    0.00       0    71.4
  85   21:50   66.4    18    1.9   234      3.0   936.7    0.00       0    71.3
  85   22:00   65.3    20    2.8   210      4.5   936.8    0.00       0    71.2
  85   22:10   64.8    20    2.2   235      3.5   936.8    0.00       0    71.1
  85   22:20   64.1    21    3.0   230      4.8   936.9    0.00       0    70.9
  85   22:30   64.4    20    4.1   218      6.2   936.9    0.00       0    70.8
  85   22:40   64.6    21    4.1   223      5.3   937.0    0.00       0    70.8
  85   22:50   63.8    21    2.2   206      3.4   937.0    0.00       0    70.7
  85   23:00   63.8    21    1.3   202      3.3   937.0    0.00       0    70.6

Return to Boulder City, Nevada graphs page.


Western Regional Climate Center,wrcc@dri.edu